createdAt,value
2023-05-06T00:04:35.148Z,4.18
2023-05-06T00:09:38.198Z,4.13
2023-05-06T00:14:41.495Z,4.09
2023-05-06T00:19:44.621Z,4.05
2023-05-06T00:24:47.750Z,4.01
2023-05-06T00:29:50.651Z,3.95
2023-05-06T00:34:53.420Z,3.90
2023-05-06T00:39:59.098Z,3.85
2023-05-06T00:45:01.897Z,3.79
2023-05-06T00:50:05.275Z,3.76
2023-05-06T00:55:08.982Z,3.73
2023-05-06T01:00:12.661Z,3.70
2023-05-06T01:05:19.289Z,3.66
2023-05-06T01:10:33.440Z,3.62
2023-05-06T01:15:45.963Z,3.57
2023-05-06T01:20:52.577Z,3.54
2023-05-06T01:25:55.449Z,3.51
2023-05-06T01:31:03.810Z,3.48
2023-05-06T01:36:23.031Z,3.45
2023-05-06T01:41:27.529Z,3.42
2023-05-06T01:46:32.137Z,3.39
2023-05-06T01:51:35.395Z,3.36
2023-05-06T01:56:38.161Z,3.32
2023-05-06T02:01:41.003Z,3.29
2023-05-06T02:06:43.863Z,3.26
2023-05-06T02:11:46.772Z,3.21
2023-05-06T02:16:49.558Z,3.17
2023-05-06T02:21:52.329Z,3.13
2023-05-06T02:26:55.112Z,3.07
2023-05-06T02:31:57.869Z,3.04
2023-05-06T02:37:00.763Z,3.00
2023-05-06T02:42:03.956Z,2.97
2023-05-06T02:47:06.738Z,2.94
2023-05-06T02:52:09.518Z,2.92
2023-05-06T02:57:12.258Z,2.89
2023-05-06T03:02:15.009Z,2.90
2023-05-06T03:07:17.882Z,2.92
2023-05-06T03:12:20.677Z,2.95
2023-05-06T03:17:23.489Z,2.99
2023-05-06T03:22:28.719Z,3.06
2023-05-06T03:27:31.529Z,3.16
2023-05-06T03:32:34.646Z,3.26
2023-05-06T03:37:37.455Z,3.35
2023-05-06T03:42:40.365Z,3.46
2023-05-06T03:47:43.204Z,3.54
2023-05-06T03:52:46.121Z,3.62
2023-05-06T03:57:48.882Z,3.74
2023-05-06T04:02:56.235Z,3.88
2023-05-06T04:07:59.140Z,4.05
2023-05-06T04:13:02.204Z,4.26
2023-05-06T04:18:07.925Z,4.47
2023-05-06T04:23:10.755Z,4.60
2023-05-06T04:28:13.475Z,4.71
2023-05-06T04:33:16.800Z,4.87
2023-05-06T04:38:25.852Z,5.03
2023-05-06T04:43:28.700Z,5.36
2023-05-06T04:48:32.342Z,5.61
2023-05-06T04:53:35.224Z,5.71
2023-05-06T04:58:37.972Z,5.65
2023-05-06T05:03:40.778Z,5.58
2023-05-06T05:08:43.568Z,5.53
2023-05-06T05:13:46.469Z,5.59
2023-05-06T05:18:49.260Z,5.74
2023-05-06T05:23:52.011Z,5.92
2023-05-06T05:28:54.798Z,6.13
2023-05-06T05:33:57.560Z,6.44
2023-05-06T05:39:00.532Z,6.66
2023-05-06T05:44:03.409Z,6.88
2023-05-06T05:49:07.077Z,6.95
2023-05-06T05:54:09.862Z,7.08
2023-05-06T05:59:12.750Z,7.29
2023-05-06T06:04:16.061Z,7.45
2023-05-06T06:09:18.957Z,7.66
2023-05-06T06:14:21.770Z,7.87
2023-05-06T06:19:24.592Z,8.13
2023-05-06T06:24:27.475Z,8.66
2023-05-06T06:29:30.409Z,9.35
2023-05-06T06:34:33.500Z,10.17
2023-05-06T06:39:36.386Z,11.08
2023-05-06T06:44:39.566Z,11.71
2023-05-06T06:49:43.143Z,12.11
2023-05-06T06:54:45.963Z,12.14
2023-05-06T06:59:51.999Z,12.07
2023-05-06T07:04:54.919Z,12.08
2023-05-06T07:09:57.973Z,12.05
2023-05-06T07:15:00.888Z,12.08
2023-05-06T07:20:08.009Z,12.00
2023-05-06T07:25:11.298Z,11.89
2023-05-06T07:30:14.502Z,12.03
2023-05-06T07:35:17.582Z,12.48
2023-05-06T07:40:20.349Z,12.79
2023-05-06T07:45:25.313Z,12.80
2023-05-06T07:50:28.140Z,12.79
2023-05-06T07:55:33.905Z,12.76
2023-05-06T08:00:41.618Z,12.60
2023-05-06T08:05:44.535Z,12.50
2023-05-06T08:10:47.342Z,12.53
2023-05-06T08:15:50.374Z,12.70
2023-05-06T08:20:53.305Z,12.76
2023-05-06T08:25:56.094Z,12.89
2023-05-06T08:30:58.923Z,12.92
2023-05-06T08:36:01.733Z,12.82
2023-05-06T08:41:09.829Z,12.77
2023-05-06T08:46:13.738Z,12.78
2023-05-06T08:51:17.096Z,12.72
2023-05-06T08:56:26.110Z,12.66
2023-05-06T09:01:29.358Z,12.65
2023-05-06T09:06:32.986Z,12.65
2023-05-06T09:11:40.126Z,12.72
2023-05-06T09:16:47.985Z,12.81
2023-05-06T09:22:07.291Z,12.81
2023-05-06T09:27:12.297Z,12.82
2023-05-06T09:32:17.878Z,12.79
2023-05-06T09:37:22.089Z,12.95
2023-05-06T09:42:26.930Z,13.23
2023-05-06T09:47:34.921Z,13.52
2023-05-06T09:52:40.426Z,13.69
2023-05-06T09:57:44.663Z,13.77
2023-05-06T10:02:48.798Z,13.76
2023-05-06T10:07:53.576Z,13.73
2023-05-06T10:12:56.575Z,13.96
2023-05-06T10:18:01.795Z,14.12
2023-05-06T10:23:23.680Z,14.33
2023-05-06T10:28:31.029Z,14.36
2023-05-06T10:33:34.920Z,14.39
2023-05-06T10:38:43.737Z,14.31
2023-05-06T10:43:47.779Z,14.26
2023-05-06T10:49:11.302Z,14.35
2023-05-06T10:54:20.515Z,14.52
2023-05-06T10:59:25.788Z,14.69
2023-05-06T11:04:30.809Z,14.77
2023-05-06T11:09:33.807Z,14.68
2023-05-06T11:14:39.739Z,14.66
2023-05-06T11:19:42.538Z,14.60
2023-05-06T11:24:45.444Z,14.55
2023-05-06T11:29:48.259Z,14.47
2023-05-06T11:34:55.892Z,14.49
2023-05-06T11:39:58.637Z,14.51
2023-05-06T11:45:02.225Z,14.50
2023-05-06T11:50:07.795Z,14.42
2023-05-06T11:55:11.936Z,14.26
2023-05-06T12:00:15.192Z,14.20
2023-05-06T12:05:22.435Z,14.23
2023-05-06T12:10:26.691Z,14.24
2023-05-06T12:15:30.015Z,14.20
2023-05-06T12:20:32.979Z,14.07
2023-05-06T12:25:35.950Z,14.07
2023-05-06T12:30:38.902Z,14.11
2023-05-06T12:35:41.700Z,14.12
2023-05-06T12:40:52.888Z,14.10
2023-05-06T12:46:07.366Z,14.00
2023-05-06T12:51:22.620Z,13.94
2023-05-06T12:56:25.446Z,13.90
2023-05-06T13:01:28.540Z,13.89
2023-05-06T13:06:31.845Z,13.91
2023-05-06T13:11:34.606Z,13.93
2023-05-06T13:16:38.546Z,13.81
2023-05-06T13:21:41.631Z,13.67
2023-05-06T13:26:45.067Z,13.61
2023-05-06T13:31:47.872Z,13.60
2023-05-06T13:36:51.051Z,13.57
2023-05-06T13:41:56.761Z,13.54
2023-05-06T13:47:00.540Z,13.54
2023-05-06T13:52:05.171Z,13.48
2023-05-06T13:57:09.217Z,13.41
2023-05-06T14:02:12.158Z,13.36
2023-05-06T14:07:15.090Z,13.33
2023-05-06T14:12:17.933Z,13.37
2023-05-06T14:17:21.230Z,13.34
2023-05-06T14:22:27.861Z,13.40
2023-05-06T14:27:31.588Z,13.46
2023-05-06T14:32:35.743Z,13.41
2023-05-06T14:37:41.821Z,13.31
2023-05-06T14:42:46.477Z,13.29
2023-05-06T14:47:51.769Z,13.30
2023-05-06T14:52:54.962Z,13.32
2023-05-06T14:57:57.865Z,13.34
2023-05-06T15:03:01.395Z,13.35
2023-05-06T15:08:06.839Z,13.36
2023-05-06T15:13:09.920Z,13.36
2023-05-06T15:18:13.400Z,13.29
2023-05-06T15:23:16.300Z,13.21
2023-05-06T15:28:19.553Z,13.14
2023-05-06T15:33:22.398Z,13.08
2023-05-06T15:38:25.800Z,13.00
2023-05-06T15:43:37.488Z,12.88
2023-05-06T15:48:42.043Z,12.77
2023-05-06T15:53:45.473Z,12.72
2023-05-06T15:58:48.653Z,12.68
2023-05-06T16:03:52.399Z,12.60
2023-05-06T16:08:58.419Z,12.55
2023-05-06T16:14:03.584Z,12.53
2023-05-06T16:19:07.509Z,12.52
2023-05-06T16:24:11.467Z,12.49
2023-05-06T16:29:17.569Z,12.45
2023-05-06T16:34:20.884Z,12.39
2023-05-06T16:39:24.153Z,12.36
2023-05-06T16:44:27.113Z,12.32
2023-05-06T16:49:30.101Z,12.25
2023-05-06T16:54:35.653Z,12.19
2023-05-06T16:59:40.760Z,12.12
2023-05-06T17:04:43.662Z,12.05
2023-05-06T17:09:46.420Z,12.00
2023-05-06T17:14:51.661Z,11.96
2023-05-06T17:19:57.645Z,11.90
2023-05-06T17:25:00.516Z,11.85
2023-05-06T17:30:06.056Z,11.79
2023-05-06T17:35:12.798Z,11.73
2023-05-06T17:40:16.419Z,11.68
2023-05-06T17:45:21.404Z,11.62
2023-05-06T17:50:26.540Z,11.55
2023-05-06T17:55:29.422Z,11.48
2023-05-06T18:00:32.869Z,11.40
2023-05-06T18:05:35.777Z,11.32
2023-05-06T18:10:41.227Z,11.22
2023-05-06T18:15:44.680Z,11.14
2023-05-06T18:20:47.898Z,11.04
2023-05-06T18:25:50.753Z,10.94
2023-05-06T18:30:53.532Z,10.85
2023-05-06T18:36:05.116Z,10.78
2023-05-06T18:41:11.148Z,10.70
2023-05-06T18:46:14.068Z,10.64
2023-05-06T18:51:17.729Z,10.56
2023-05-06T18:56:22.587Z,10.48
2023-05-06T19:01:25.499Z,10.42
2023-05-06T19:06:28.499Z,10.34
2023-05-06T19:11:31.676Z,10.27
2023-05-06T19:16:34.523Z,10.20
2023-05-06T19:21:41.212Z,10.14
2023-05-06T19:26:46.123Z,10.10
2023-05-06T19:31:49.126Z,10.04
2023-05-06T19:36:52.930Z,9.98
2023-05-06T19:41:55.778Z,9.93
2023-05-06T19:46:58.562Z,9.87
2023-05-06T19:52:01.361Z,9.82
2023-05-06T19:57:04.109Z,9.77
2023-05-06T20:02:11.335Z,9.70
2023-05-06T20:07:16.763Z,9.64
2023-05-06T20:12:19.908Z,9.57
2023-05-06T20:17:23.383Z,9.52
2023-05-06T20:22:27.206Z,9.47
2023-05-06T20:27:30.162Z,9.41
2023-05-06T20:32:33.098Z,9.35
2023-05-06T20:37:36.716Z,9.29
2023-05-06T20:42:44.199Z,9.20
2023-05-06T20:47:47.152Z,9.10
2023-05-06T20:52:52.514Z,8.98
2023-05-06T20:57:55.285Z,8.87
2023-05-06T21:02:58.273Z,8.74
2023-05-06T21:08:01.402Z,8.64
2023-05-06T21:13:04.915Z,8.56
2023-05-06T21:18:08.538Z,8.49
2023-05-06T21:23:11.462Z,8.43
2023-05-06T21:28:14.440Z,8.38
2023-05-06T21:33:18.039Z,8.33
2023-05-06T21:38:21.337Z,8.28
2023-05-06T21:43:24.226Z,8.23
2023-05-06T21:48:26.937Z,8.21
2023-05-06T21:53:29.734Z,8.18
2023-05-06T21:58:32.525Z,8.14
2023-05-06T22:03:37.271Z,8.11
2023-05-06T22:08:42.637Z,8.07
2023-05-06T22:13:45.820Z,8.04
2023-05-06T22:18:48.579Z,8.02
2023-05-06T22:23:51.326Z,8.00
2023-05-06T22:28:57.471Z,7.97
2023-05-06T22:34:04.519Z,7.93
2023-05-06T22:39:07.390Z,7.87
2023-05-06T22:44:10.524Z,7.83
2023-05-06T22:49:14.540Z,7.76
2023-05-06T22:54:17.340Z,7.69
2023-05-06T22:59:20.118Z,7.60
2023-05-06T23:04:23.646Z,7.51
2023-05-06T23:09:26.412Z,7.40
2023-05-06T23:14:29.158Z,7.31
2023-05-06T23:19:31.860Z,7.23
2023-05-06T23:24:34.709Z,7.13
2023-05-06T23:29:37.440Z,7.04
2023-05-06T23:34:40.217Z,6.94
2023-05-06T23:39:43.098Z,6.82
2023-05-06T23:49:47.144Z,6.53
2023-05-06T23:54:50.150Z,6.41
2023-05-06T23:59:53.099Z,6.29
